Time;durP1;ratioP1;P1;durP2;ratioP2;P2;SDS_P1;SDS_P2;PMS_P1;PMS_P2;Temp;Humidity;BMP_temperature;BMP_pressure;BME280_temperature;BME280_humidity;BME280_pressure;Samples;Min_cycle;Max_cycle;Signal;HPM_P1;HPM_P2
2023/07/27 00:00:05;;;;;;;10.90;4.78;;;14.00;99.90;;;;;;5086947;28;20473;-71
2023/07/27 00:02:32;;;;;;;11.52;5.43;;;14.00;99.90;;;;;;5080563;28;20429;-71
2023/07/27 00:04:57;;;;;;;10.88;4.55;;;13.90;99.90;;;;;;5067110;28;20040;-71
2023/07/27 00:07:24;;;;;;;10.57;5.40;;;13.90;99.90;;;;;;5067055;28;20578;-71
2023/07/27 00:09:50;;;;;;;13.90;5.50;;;13.90;99.90;;;;;;5066807;28;20048;-71
2023/07/27 00:12:16;;;;;;;10.50;5.20;;;13.90;99.90;;;;;;5064447;28;20041;-71
2023/07/27 00:14:42;;;;;;;11.82;4.72;;;13.80;99.90;;;;;;5066670;28;20386;-71
2023/07/27 00:17:07;;;;;;;11.90;5.53;;;13.80;99.90;;;;;;5086953;28;20055;-71
2023/07/27 00:19:33;;;;;;;11.02;5.10;;;13.70;99.90;;;;;;5086995;28;20040;-71
2023/07/27 00:21:59;;;;;;;11.07;5.82;;;13.70;99.90;;;;;;5088060;28;20744;-71
2023/07/27 00:24:24;;;;;;;11.15;5.47;;;13.70;99.90;;;;;;5081136;28;20044;-71
2023/07/27 00:26:50;;;;;;;11.05;5.53;;;13.70;99.90;;;;;;5088368;28;20121;-71
2023/07/27 00:29:16;;;;;;;9.40;4.68;;;13.60;99.90;;;;;;5091031;28;20051;-71
2023/07/27 00:31:41;;;;;;;13.48;5.68;;;13.70;99.90;;;;;;5090924;28;20427;-71
2023/07/27 00:34:07;;;;;;;12.20;5.68;;;13.60;99.90;;;;;;5090661;28;20482;-71
2023/07/27 00:36:33;;;;;;;10.55;5.20;;;13.60;99.90;;;;;;5087640;28;20113;-71
2023/07/27 00:38:58;;;;;;;8.63;4.53;;;13.60;99.90;;;;;;5089477;28;20078;-71
2023/07/27 00:41:24;;;;;;;9.48;5.15;;;13.60;99.90;;;;;;5082963;28;20062;-71
2023/07/27 00:43:50;;;;;;;10.98;5.70;;;13.60;99.90;;;;;;5089924;28;20050;-71
2023/07/27 00:46:16;;;;;;;10.90;5.05;;;13.60;99.90;;;;;;5089921;28;20097;-71
2023/07/27 00:48:42;;;;;;;9.38;5.45;;;13.60;99.90;;;;;;5090523;28;20135;-71
2023/07/27 00:51:09;;;;;;;12.65;5.68;;;13.60;99.90;;;;;;5090501;28;20157;-71
2023/07/27 00:53:35;;;;;;;9.75;5.22;;;13.60;99.90;;;;;;5090388;28;20087;-72
2023/07/27 00:56:02;;;;;;;12.35;5.30;;;13.60;99.90;;;;;;5078608;28;20044;-72
2023/07/27 00:58:28;;;;;;;10.93;5.13;;;13.60;99.90;;;;;;5068874;28;20444;-71
2023/07/27 01:00:56;;;;;;;12.20;5.72;;;13.60;99.90;;;;;;5070051;28;20042;-71
2023/07/27 01:03:22;;;;;;;12.32;5.80;;;13.60;99.90;;;;;;5068296;28;20067;-71
2023/07/27 01:05:48;;;;;;;10.65;5.32;;;13.60;99.90;;;;;;5078578;28;20135;-71
2023/07/27 01:08:14;;;;;;;12.23;5.90;;;13.60;99.90;;;;;;5088905;28;20056;-71
2023/07/27 01:10:56;;;;;;;11.40;5.05;;;13.60;99.90;;;;;;5086379;28;20531;-70
2023/07/27 01:13:29;;;;;;;12.02;6.05;;;13.60;99.90;;;;;;5070840;28;20080;-71
2023/07/27 01:16:04;;;;;;;12.13;5.90;;;13.60;99.90;;;;;;5089597;28;20583;-71
2023/07/27 01:18:40;;;;;;;11.45;5.50;;;13.60;99.90;;;;;;5089348;28;20040;-71
2023/07/27 01:21:29;;;;;;;12.75;5.68;;;13.50;99.90;;;;;;5089476;28;20139;-71
2023/07/27 01:23:57;;;;;;;11.57;5.80;;;13.50;99.90;;;;;;5088395;28;20052;-71
2023/07/27 01:26:41;;;;;;;14.52;5.57;;;13.50;99.90;;;;;;5078621;28;20043;-71
2023/07/27 01:29:28;;;;;;;10.82;5.50;;;13.50;99.90;;;;;;5071330;28;20058;-71
2023/07/27 01:31:54;;;;;;;8.50;4.82;;;13.50;99.90;;;;;;5089240;28;20050;-71
2023/07/27 01:34:29;;;;;;;11.27;5.75;;;13.50;99.90;;;;;;5087470;28;20039;-71
2023/07/27 01:37:04;;;;;;;12.52;5.20;;;13.50;99.90;;;;;;5088467;28;20040;-71
2023/07/27 01:39:35;;;;;;;10.15;4.93;;;13.50;99.90;;;;;;5089283;28;20051;-71
2023/07/27 01:42:01;;;;;;;;;;;13.40;99.90;;;;;;5073498;28;20052;-71
2023/07/27 01:44:29;;;;;;;9.95;5.32;;;13.40;99.90;;;;;;5079992;28;19945;-71
2023/07/27 01:46:57;;;;;;;11.10;5.40;;;13.50;99.90;;;;;;5087948;28;20075;-71
2023/07/27 01:49:24;;;;;;;11.98;4.78;;;13.40;99.90;;;;;;5088874;28;20044;-72
2023/07/27 01:51:50;;;;;;;12.05;5.65;;;13.40;99.90;;;;;;5087195;28;20355;-71
2023/07/27 01:54:16;;;;;;;10.07;5.38;;;13.40;99.90;;;;;;5070981;28;20052;-72
2023/07/27 01:56:45;;;;;;;9.35;5.18;;;13.40;99.90;;;;;;5072621;28;20123;-72
2023/07/27 01:59:11;;;;;;;10.38;5.70;;;13.40;99.90;;;;;;5069221;28;20048;-71
2023/07/27 02:01:38;;;;;;;9.52;4.60;;;13.40;99.90;;;;;;5069145;28;20059;-72
2023/07/27 02:04:05;;;;;;;12.15;5.07;;;13.40;99.90;;;;;;5068498;28;20123;-71
2023/07/27 02:06:31;;;;;;;11.50;4.90;;;13.40;99.90;;;;;;5083352;28;20055;-72
2023/07/27 02:08:56;;;;;;;11.23;5.18;;;13.40;99.90;;;;;;5087428;28;20040;-72
2023/07/27 02:11:24;;;;;;;11.23;4.97;;;13.40;99.90;;;;;;5087562;28;20047;-72
2023/07/27 02:13:57;;;;;;;12.13;5.22;;;13.40;99.90;;;;;;5074159;28;20454;-71
2023/07/27 02:16:38;;;;;;;11.50;4.95;;;13.40;99.90;;;;;;5086514;28;20561;-72
2023/07/27 02:19:06;;;;;;;10.32;5.38;;;13.40;99.90;;;;;;5086402;28;20079;-72
2023/07/27 02:21:32;;;;;;;10.50;4.85;;;13.40;99.90;;;;;;5086702;28;20036;-71
2023/07/27 02:23:59;;;;;;;9.82;4.60;;;13.40;99.90;;;;;;5087803;28;20044;-72
2023/07/27 02:26:25;;;;;;;10.40;5.38;;;13.60;99.90;;;;;;5087714;28;20105;-71
2023/07/27 02:28:51;;;;;;;11.60;5.35;;;13.40;99.90;;;;;;5086245;28;20043;-71
2023/07/27 02:31:17;;;;;;;10.73;5.55;;;13.40;99.90;;;;;;5086817;28;20058;-71
2023/07/27 02:33:42;;;;;;;9.38;4.80;;;13.40;99.90;;;;;;5087268;28;20043;-72
2023/07/27 02:36:08;;;;;;;9.40;5.00;;;13.30;99.90;;;;;;5088417;28;20044;-71
2023/07/27 02:38:34;;;;;;;10.15;5.20;;;13.40;99.90;;;;;;5079442;28;20489;-72
2023/07/27 02:40:59;;;;;;;10.98;5.55;;;13.40;99.90;;;;;;5075181;28;20044;-71
2023/07/27 02:43:25;;;;;;;9.65;4.50;;;13.30;99.90;;;;;;5088228;28;20470;-71
2023/07/27 02:45:57;;;;;;;8.93;4.78;;;13.30;99.90;;;;;;5084209;28;20048;-71
2023/07/27 02:48:23;;;;;;;12.65;5.55;;;13.30;99.90;;;;;;5082804;28;20037;-71
2023/07/27 02:50:50;;;;;;;10.43;5.20;;;13.40;99.90;;;;;;5066469;28;20048;-71
2023/07/27 02:53:16;;;;;;;8.38;4.63;;;13.40;99.90;;;;;;5066632;28;20068;-71
2023/07/27 02:55:42;;;;;;;9.20;4.88;;;13.40;99.90;;;;;;5067866;28;20397;-71
2023/07/27 02:58:08;;;;;;;11.15;4.68;;;13.40;99.90;;;;;;5068877;28;20102;-71
2023/07/27 03:00:33;;;;;;;12.23;5.20;;;13.40;99.90;;;;;;5088062;28;20048;-72
2023/07/27 03:03:00;;;;;;;9.45;4.88;;;13.40;99.90;;;;;;5087434;28;20416;-72
2023/07/27 03:05:27;;;;;;;8.25;4.53;;;13.40;99.90;;;;;;5086869;28;20055;-71
2023/07/27 03:07:52;;;;;;;10.73;4.65;;;13.40;99.90;;;;;;5086107;28;20044;-71
2023/07/27 03:10:18;;;;;;;9.57;4.57;;;13.40;99.90;;;;;;5068163;28;20105;-71
2023/07/27 03:12:44;;;;;;;8.27;4.80;;;13.40;99.90;;;;;;5066000;28;20037;-72
2023/07/27 03:15:10;;;;;;;9.52;4.82;;;13.40;99.90;;;;;;5067517;28;20037;-72
2023/07/27 03:17:35;;;;;;;9.13;4.63;;;13.40;99.90;;;;;;5070699;28;20396;-72
2023/07/27 03:20:01;;;;;;;9.23;4.32;;;13.50;99.90;;;;;;5087098;28;20039;-71
2023/07/27 03:22:27;;;;;;;8.38;4.63;;;13.50;99.90;;;;;;5086503;28;20044;-71
2023/07/27 03:24:52;;;;;;;8.52;4.50;;;13.50;99.90;;;;;;5055825;28;20048;-71
2023/07/27 03:27:18;;;;;;;11.70;4.68;;;13.50;99.90;;;;;;5067381;28;20048;-71
2023/07/27 03:29:44;;;;;;;9.18;4.60;;;13.50;99.90;;;;;;5078769;28;20044;-71
2023/07/27 03:32:09;;;;;;;9.15;5.05;;;13.50;99.90;;;;;;5087085;28;20075;-71
2023/07/27 03:34:35;;;;;;;11.43;5.25;;;13.50;99.90;;;;;;5086913;28;20052;-72
2023/07/27 03:37:01;;;;;;;11.27;5.15;;;13.50;99.90;;;;;;5087396;28;20063;-72
2023/07/27 03:39:27;;;;;;;10.52;5.13;;;13.50;99.90;;;;;;5078358;28;20047;-71
2023/07/27 03:41:53;;;;;;;13.20;5.18;;;13.50;99.90;;;;;;5081350;28;20047;-71
2023/07/27 03:44:18;;;;;;;10.02;4.82;;;13.50;99.90;;;;;;5085908;28;20721;-71
2023/07/27 03:46:44;;;;;;;10.82;4.93;;;13.50;99.90;;;;;;5083108;28;20039;-72
2023/07/27 03:49:10;;;;;;;8.93;5.15;;;13.60;99.90;;;;;;5082696;28;20071;-72
2023/07/27 03:51:36;;;;;;;9.52;5.15;;;13.50;99.90;;;;;;5066250;28;20128;-71
2023/07/27 03:54:01;;;;;;;11.35;5.30;;;13.60;99.90;;;;;;5072869;28;20036;-71
2023/07/27 03:56:27;;;;;;;12.63;5.50;;;13.60;99.90;;;;;;5087116;28;20044;-72
2023/07/27 03:58:55;;;;;;;11.20;6.20;;;13.60;99.90;;;;;;5093297;28;20521;-73
2023/07/27 04:01:21;;;;;;;12.73;5.72;;;13.60;99.90;;;;;;5092452;28;20554;-71
2023/07/27 04:03:47;;;;;;;12.05;5.90;;;13.60;99.90;;;;;;5092126;28;20119;-72
2023/07/27 04:06:12;;;;;;;11.27;6.13;;;13.60;99.90;;;;;;5084901;28;20404;-72
2023/07/27 04:08:38;;;;;;;13.57;5.80;;;13.60;99.90;;;;;;5072826;28;20056;-71
2023/07/27 04:11:04;;;;;;;10.45;6.00;;;13.60;99.90;;;;;;5076883;28;20041;-71
2023/07/27 04:13:30;;;;;;;13.40;6.10;;;13.60;99.90;;;;;;5082384;28;20093;-72
2023/07/27 04:15:56;;;;;;;12.02;6.25;;;13.60;99.90;;;;;;5077878;28;20130;-72
2023/07/27 04:18:21;;;;;;;12.85;6.93;;;13.60;99.90;;;;;;5090252;28;20040;-71
2023/07/27 04:20:47;;;;;;;10.77;5.72;;;13.60;99.90;;;;;;5092370;28;20374;-72
2023/07/27 04:23:13;;;;;;;10.88;6.25;;;13.60;99.90;;;;;;5091264;28;20051;-72
2023/07/27 04:25:39;;;;;;;13.85;6.85;;;13.60;99.90;;;;;;5092075;28;20044;-72
2023/07/27 04:28:05;;;;;;;15.10;7.10;;;13.60;99.90;;;;;;5092885;28;20571;-70
2023/07/27 04:30:31;;;;;;;14.18;7.30;;;13.60;99.90;;;;;;5084793;28;20058;-72
2023/07/27 04:32:57;;;;;;;16.05;7.25;;;13.60;99.90;;;;;;5080645;28;20502;-71
2023/07/27 04:35:22;;;;;;;14.25;6.65;;;13.60;99.90;;;;;;5093490;28;20055;-72
2023/07/27 04:37:48;;;;;;;12.15;6.85;;;13.60;99.90;;;;;;5092661;28;20073;-71
2023/07/27 04:40:14;;;;;;;14.88;7.70;;;13.60;99.90;;;;;;5092732;28;20051;-71
2023/07/27 04:42:40;;;;;;;13.43;7.47;;;13.70;99.90;;;;;;5077432;28;20155;-72
2023/07/27 04:45:07;;;;;;;15.60;7.03;;;13.60;99.90;;;;;;5087953;28;20059;-71
2023/07/27 04:47:34;;;;;;;16.30;8.75;;;13.70;99.90;;;;;;5086658;28;20052;-71
2023/07/27 04:50:00;;;;;;;14.32;8.60;;;13.70;99.90;;;;;;5082455;28;20055;-71
2023/07/27 04:52:27;;;;;;;21.08;10.10;;;13.70;99.90;;;;;;5092334;28;20048;-72
2023/07/27 04:54:53;;;;;;;18.65;9.38;;;13.60;99.90;;;;;;5092657;28;20072;-71
2023/07/27 04:57:19;;;;;;;16.85;9.23;;;13.70;99.90;;;;;;5076110;28;20757;-71
2023/07/27 04:59:44;;;;;;;14.23;8.77;;;13.70;99.90;;;;;;5088861;28;20041;-71
2023/07/27 05:02:10;;;;;;;15.40;8.85;;;13.70;99.90;;;;;;5090133;28;20043;-70
2023/07/27 05:04:36;;;;;;;15.73;9.23;;;13.70;99.90;;;;;;5092053;28;20063;-71
2023/07/27 05:07:01;;;;;;;14.23;8.07;;;13.70;99.90;;;;;;5092158;28;20040;-71
2023/07/27 05:09:28;;;;;;;14.98;8.40;;;13.70;99.90;;;;;;5088171;28;20044;-71
2023/07/27 05:11:53;;;;;;;14.50;8.60;;;13.70;99.90;;;;;;5087129;28;20048;-71
2023/07/27 05:14:19;;;;;;;16.38;9.05;;;13.70;99.90;;;;;;5087071;28;20047;-71
2023/07/27 05:16:45;;;;;;;16.33;8.55;;;13.70;99.90;;;;;;5088505;28;20138;-70
2023/07/27 05:19:10;;;;;;;13.50;8.13;;;13.70;99.90;;;;;;5071435;28;20048;-70
2023/07/27 05:21:36;;;;;;;14.35;9.07;;;13.70;99.90;;;;;;5068367;28;20114;-71
2023/07/27 05:24:02;;;;;;;17.02;8.60;;;13.70;99.90;;;;;;5074523;28;20134;-71
2023/07/27 05:26:28;;;;;;;15.07;7.82;;;13.70;99.90;;;;;;5089058;28;20059;-71
2023/07/27 05:28:53;;;;;;;14.38;8.05;;;13.70;99.90;;;;;;5089656;28;20123;-71
2023/07/27 05:31:19;;;;;;;14.23;7.82;;;13.80;99.90;;;;;;5089882;28;20429;-71
2023/07/27 05:33:45;;;;;;;13.68;7.85;;;13.80;99.90;;;;;;5089388;28;20090;-71
2023/07/27 05:36:10;;;;;;;14.05;7.97;;;13.80;99.90;;;;;;5089741;28;20419;-72
2023/07/27 05:38:36;;;;;;;13.18;7.78;;;13.80;99.90;;;;;;5090152;28;20584;-71
2023/07/27 05:41:02;;;;;;;12.10;7.47;;;13.80;99.90;;;;;;5089565;28;20599;-71
2023/07/27 05:43:28;;;;;;;11.75;6.90;;;13.80;99.90;;;;;;5089537;28;20044;-71
2023/07/27 05:45:53;;;;;;;13.65;8.68;;;13.80;99.90;;;;;;5089460;28;20424;-71
2023/07/27 05:48:19;;;;;;;14.57;8.05;;;13.80;99.90;;;;;;5089760;28;20097;-71
2023/07/27 05:50:45;;;;;;;15.55;7.50;;;13.80;99.90;;;;;;5089390;28;20128;-72
2023/07/27 05:53:10;;;;;;;16.02;7.32;;;13.80;99.90;;;;;;5089213;28;20055;-72
2023/07/27 05:55:36;;;;;;;15.45;8.18;;;13.80;99.90;;;;;;5088489;28;20127;-72
2023/07/27 05:58:02;;;;;;;14.15;7.47;;;13.80;99.90;;;;;;5088961;28;20055;-71
2023/07/27 06:00:28;;;;;;;13.20;7.38;;;13.80;99.90;;;;;;5089496;28;20035;-71
2023/07/27 06:02:54;;;;;;;12.68;7.43;;;13.80;99.90;;;;;;5087887;28;20044;-71
2023/07/27 06:05:19;;;;;;;13.18;7.80;;;14.00;99.90;;;;;;5088236;28;20040;-72
2023/07/27 06:07:45;;;;;;;11.60;6.70;;;13.80;99.90;;;;;;5089249;28;20396;-71
2023/07/27 06:10:11;;;;;;;12.80;7.00;;;13.90;99.90;;;;;;5089356;28;20575;-71
2023/07/27 06:12:37;;;;;;;12.65;7.60;;;13.80;99.90;;;;;;5070796;28;20040;-72
2023/07/27 06:15:03;;;;;;;11.48;6.82;;;13.80;99.90;;;;;;5088264;28;20060;-72
2023/07/27 06:17:29;;;;;;;13.68;7.43;;;13.90;99.90;;;;;;5089042;28;20052;-72
2023/07/27 06:19:55;;;;;;;11.52;6.13;;;13.90;99.90;;;;;;5088589;28;20081;-72
2023/07/27 06:22:20;;;;;;;12.82;6.68;;;14.00;99.90;;;;;;5088802;28;20070;-72
2023/07/27 06:24:46;;;;;;;11.20;6.78;;;14.00;99.90;;;;;;5088569;28;20055;-72
2023/07/27 06:27:12;;;;;;;12.02;6.97;;;14.10;99.90;;;;;;5088485;28;20074;-72
2023/07/27 06:29:37;;;;;;;13.57;6.72;;;14.10;99.90;;;;;;5088904;28;20036;-72
2023/07/27 06:32:03;;;;;;;12.15;6.40;;;14.20;99.90;;;;;;5087499;28;20137;-72
2023/07/27 06:34:29;;;;;;;11.43;6.75;;;14.20;99.90;;;;;;5088684;28;20447;-72
2023/07/27 06:36:55;;;;;;;11.18;6.80;;;14.30;99.90;;;;;;5088677;28;20044;-72
2023/07/27 06:39:20;;;;;;;13.48;7.10;;;14.30;99.90;;;;;;5087998;28;20047;-72
2023/07/27 06:41:46;;;;;;;11.80;6.00;;;14.40;99.90;;;;;;5074973;28;20044;-72
2023/07/27 06:44:12;;;;;;;10.88;6.70;;;14.30;99.90;;;;;;5068685;28;20044;-72
2023/07/27 06:46:37;;;;;;;13.60;6.30;;;14.40;99.90;;;;;;5067296;28;20072;-72
2023/07/27 06:49:03;;;;;;;12.27;6.82;;;14.40;99.90;;;;;;5083342;28;20518;-72
2023/07/27 06:51:29;;;;;;;13.50;6.90;;;14.40;99.90;;;;;;5074449;28;20039;-72
2023/07/27 06:53:55;;;;;;;10.98;6.68;;;14.50;99.90;;;;;;5087845;28;20052;-72
2023/07/27 06:56:21;;;;;;;11.07;6.40;;;14.50;99.90;;;;;;5088198;28;20040;-72
2023/07/27 06:58:46;;;;;;;13.00;6.57;;;14.50;99.90;;;;;;5088133;28;20051;-72
2023/07/27 07:01:12;;;;;;;12.48;6.10;;;14.50;99.90;;;;;;5088305;28;20044;-73
2023/07/27 07:03:38;;;;;;;11.07;6.10;;;14.50;99.90;;;;;;5088179;28;20050;-72
2023/07/27 07:06:04;;;;;;;10.10;5.65;;;14.60;99.90;;;;;;5087006;28;20766;-73
2023/07/27 07:08:29;;;;;;;11.20;6.30;;;14.60;99.90;;;;;;5088254;28;20392;-73
2023/07/27 07:10:55;;;;;;;10.38;5.82;;;14.60;99.90;;;;;;5087854;28;20783;-73
2023/07/27 07:13:21;;;;;;;11.65;5.53;;;14.70;99.90;;;;;;5088093;28;20671;-73
2023/07/27 07:15:49;;;;;;;8.10;5.10;;;14.70;99.90;;;;;;5088188;28;20804;-73
2023/07/27 07:18:15;;;;;;;9.05;4.85;;;14.80;99.90;;;;;;5088066;28;20044;-73
2023/07/27 07:20:41;;;;;;;10.13;5.20;;;14.80;99.90;;;;;;5087908;28;20369;-73
2023/07/27 07:23:06;;;;;;;8.80;4.78;;;14.80;99.90;;;;;;5086549;28;20079;-73
2023/07/27 07:25:32;;;;;;;9.55;5.10;;;14.80;99.90;;;;;;5086336;28;20036;-73
2023/07/27 07:27:58;;;;;;;9.27;5.28;;;14.80;99.90;;;;;;5087908;28;20059;-73
2023/07/27 07:30:23;;;;;;;10.68;5.45;;;14.80;99.90;;;;;;5087877;28;20382;-73
2023/07/27 07:32:53;;;;;;;8.60;5.25;;;14.80;99.90;;;;;;5085554;28;20198;-73
2023/07/27 07:35:20;;;;;;;8.55;5.03;;;14.80;99.90;;;;;;5087379;28;20044;-73
2023/07/27 07:37:47;;;;;;;8.98;5.70;;;14.80;99.90;;;;;;5087311;28;20044;-73
2023/07/27 07:40:13;;;;;;;9.18;4.93;;;14.80;99.90;;;;;;5087154;28;20499;-73
2023/07/27 07:42:39;;;;;;;9.23;5.18;;;14.90;99.90;;;;;;5087933;28;20614;-74
2023/07/27 07:45:05;;;;;;;8.45;4.57;;;14.90;99.90;;;;;;5086125;28;20122;-73
2023/07/27 07:47:31;;;;;;;8.43;4.43;;;15.00;99.90;;;;;;5087676;28;20208;-73
2023/07/27 07:49:59;;;;;;;12.02;4.80;;;15.00;99.90;;;;;;5087907;28;20127;-74
2023/07/27 07:52:24;;;;;;;10.20;4.82;;;15.00;99.90;;;;;;5087458;28;20698;-73
2023/07/27 07:54:53;;;;;;;10.38;5.18;;;15.10;99.90;;;;;;5086030;28;20051;-73
2023/07/27 07:57:20;;;;;;;9.80;4.72;;;15.10;99.90;;;;;;5087859;28;20131;-74
2023/07/27 07:59:46;;;;;;;8.63;4.20;;;15.20;99.90;;;;;;5087658;28;20044;-74
2023/07/27 08:02:11;;;;;;;7.78;3.88;;;15.20;99.90;;;;;;5086988;28;20052;-73
2023/07/27 08:04:38;;;;;;;7.60;4.10;;;15.30;99.90;;;;;;5087392;28;20052;-73
2023/07/27 08:07:04;;;;;;;7.53;3.92;;;15.30;99.90;;;;;;5087245;28;20107;-73
2023/07/27 08:09:30;;;;;;;7.78;3.22;;;15.40;99.90;;;;;;5087524;28;20048;-73
2023/07/27 08:11:55;;;;;;;6.63;3.22;;;15.40;99.90;;;;;;5087181;28;20039;-74
2023/07/27 08:14:24;;;;;;;5.53;2.97;;;15.50;99.90;;;;;;5080752;28;20131;-74
2023/07/27 08:16:50;;;;;;;4.97;2.30;;;15.50;99.90;;;;;;5074932;28;20128;-74
2023/07/27 08:19:16;;;;;;;4.53;2.30;;;15.50;99.90;;;;;;5084075;28;20039;-73
2023/07/27 08:21:42;;;;;;;5.07;2.20;;;15.60;99.90;;;;;;5087251;28;20056;-74
2023/07/27 08:24:07;;;;;;;4.63;2.20;;;15.60;99.90;;;;;;5082479;28;20127;-74
2023/07/27 08:26:33;;;;;;;5.50;2.55;;;15.60;99.90;;;;;;5066057;28;20044;-74
2023/07/27 08:28:59;;;;;;;5.13;2.40;;;15.70;99.90;;;;;;5076809;28;20048;-73
2023/07/27 08:31:24;;;;;;;6.50;2.45;;;15.70;99.90;;;;;;5087361;28;20055;-71
2023/07/27 08:33:50;;;;;;;4.82;2.50;;;15.70;99.90;;;;;;5087122;28;20048;-73
2023/07/27 08:36:16;;;;;;;5.72;2.40;;;15.70;99.90;;;;;;5085888;28;20044;-73
2023/07/27 08:38:42;;;;;;;5.55;2.80;;;15.80;99.90;;;;;;5087235;28;20067;-73
2023/07/27 08:41:07;;;;;;;6.32;2.25;;;15.70;99.90;;;;;;5077687;28;20521;-74
2023/07/27 08:43:33;;;;;;;4.82;2.50;;;15.80;99.90;;;;;;5067544;28;20060;-73
2023/07/27 08:45:59;;;;;;;4.55;2.55;;;15.70;99.90;;;;;;5070895;28;20063;-73
2023/07/27 08:48:27;;;;;;;5.75;2.83;;;15.80;99.90;;;;;;5070502;28;20048;-74
2023/07/27 08:50:53;;;;;;;4.55;2.47;;;15.80;99.90;;;;;;5085663;28;20109;-73
2023/07/27 08:53:19;;;;;;;4.18;2.38;;;15.80;99.90;;;;;;5074921;28;20047;-73
2023/07/27 08:55:45;;;;;;;4.25;2.20;;;15.80;99.90;;;;;;5083830;28;20043;-74
2023/07/27 08:58:11;;;;;;;6.07;2.70;;;15.80;99.90;;;;;;5090516;28;20051;-74
2023/07/27 09:00:40;;;;;;;4.80;2.55;;;15.90;99.90;;;;;;5090819;28;20416;-73
2023/07/27 09:03:07;;;;;;;5.00;2.70;;;15.90;99.90;;;;;;5090805;28;20131;-74
2023/07/27 09:05:59;;;;;;;5.20;2.70;;;15.90;99.90;;;;;;5090056;28;20388;-73
2023/07/27 09:08:29;;;;;;;5.38;2.90;;;16.00;99.90;;;;;;5078012;28;20052;-72
2023/07/27 09:11:07;;;;;;;4.82;2.70;;;16.00;99.90;;;;;;5090511;28;20063;-72
2023/07/27 09:13:35;;;;;;;6.72;3.03;;;16.10;99.90;;;;;;5089292;28;20496;-73
2023/07/27 09:16:02;;;;;;;6.03;2.72;;;16.10;99.90;;;;;;5089351;28;20492;-73
2023/07/27 09:18:33;;;;;;;4.70;2.05;;;16.10;99.90;;;;;;5089778;28;20048;-73
2023/07/27 09:21:08;;;;;;;4.57;2.25;;;16.20;99.90;;;;;;5090239;28;20046;-74
2023/07/27 09:23:35;;;;;;;4.35;2.00;;;16.20;99.90;;;;;;5089962;28;20271;-73
2023/07/27 09:26:00;;;;;;;3.75;1.77;;;16.20;99.90;;;;;;5090228;28;20052;-74
2023/07/27 09:28:28;;;;;;;3.13;1.60;;;16.20;99.90;;;;;;5089758;28;20044;-73
2023/07/27 09:31:03;;;;;;;3.25;1.80;;;16.20;99.90;;;;;;5089100;28;20082;-74
2023/07/27 09:33:28;;;;;;;3.63;1.40;;;16.30;99.90;;;;;;5089502;28;20078;-74
2023/07/27 09:35:56;;;;;;;2.38;1.27;;;16.30;99.90;;;;;;5089396;28;20543;-73
2023/07/27 09:38:26;;;;;;;2.75;1.20;;;16.30;99.90;;;;;;5088152;28;20055;-74
2023/07/27 09:40:52;;;;;;;2.75;1.38;;;16.30;99.90;;;;;;5089790;28;20054;-74
2023/07/27 09:43:21;;;;;;;2.08;1.10;;;16.30;99.90;;;;;;5089472;28;20124;-73
2023/07/27 09:45:46;;;;;;;2.53;1.15;;;16.30;99.90;;;;;;5088387;28;20079;-73
2023/07/27 09:48:13;;;;;;;2.40;1.00;;;16.30;99.90;;;;;;5089790;28;20497;-72
2023/07/27 09:50:41;;;;;;;2.60;1.10;;;16.40;99.90;;;;;;5090026;28;20755;-74
2023/07/27 09:53:11;;;;;;;2.90;1.55;;;16.40;99.90;;;;;;5088199;28;20097;-73
2023/07/27 09:55:37;;;;;;;1.92;1.13;;;16.40;99.90;;;;;;5088713;28;20044;-73
2023/07/27 09:58:04;;;;;;;2.35;1.20;;;16.40;99.90;;;;;;5089522;28;20386;-74
2023/07/27 10:00:30;;;;;;;2.53;1.27;;;16.40;99.90;;;;;;5088877;28;20036;-74
2023/07/27 10:02:56;;;;;;;2.17;1.27;;;16.40;99.90;;;;;;5089314;28;20090;-74
2023/07/27 10:05:22;;;;;;;2.85;1.48;;;16.40;99.90;;;;;;5087672;28;20467;-73
2023/07/27 10:07:48;;;;;;;2.33;1.27;;;16.40;99.90;;;;;;5089650;28;20139;-74
2023/07/27 10:10:34;;;;;;;3.22;1.50;;;16.40;99.90;;;;;;5087461;28;20036;-74
2023/07/27 10:13:11;;;;;;;2.13;1.20;;;16.40;99.90;;;;;;5088919;28;20413;-74
2023/07/27 10:15:43;;;;;;;2.40;1.38;;;16.40;99.90;;;;;;5087975;28;20051;-73
2023/07/27 10:18:13;;;;;;;2.10;1.20;;;16.40;99.90;;;;;;5077559;28;20041;-72
2023/07/27 10:20:39;;;;;;;2.30;1.27;;;16.40;99.90;;;;;;5069647;28;21562;-73
2023/07/27 10:23:18;;;;;;;2.58;1.38;;;16.40;99.90;;;;;;5084823;28;20113;-73
2023/07/27 10:25:53;;;;;;;2.15;1.30;;;16.50;99.90;;;;;;5083027;28;20036;-73
2023/07/27 10:28:33;;;;;;;2.53;1.30;;;16.50;99.90;;;;;;5085482;28;20531;-73
2023/07/27 10:31:16;;;;;;;3.72;1.50;;;16.50;99.90;;;;;;5086378;28;20036;-73
2023/07/27 10:34:07;;;;;;;1.92;1.30;;;16.60;99.90;;;;;;5084158;28;20051;-72
2023/07/27 10:37:03;;;;;;;3.70;1.83;;;16.60;99.90;;;;;;5080557;28;20109;-72
2023/07/27 10:39:34;;;;;;;2.75;1.35;;;16.60;99.90;;;;;;5063677;28;20052;-71
2023/07/27 10:42:03;;;;;;;5.03;1.98;;;16.60;99.90;;;;;;5085331;28;20420;-72
2023/07/27 10:44:44;;;;;;;2.60;1.58;;;16.70;99.90;;;;;;5086292;28;20043;-72
2023/07/27 10:47:11;;;;;;;2.72;1.50;;;16.70;99.90;;;;;;5087435;28;20043;-71
2023/07/27 10:49:39;;;;;;;3.47;1.48;;;16.70;99.90;;;;;;5086843;28;20055;-71
2023/07/27 10:52:07;;;;;;;3.30;1.70;;;16.70;99.90;;;;;;5086806;28;20036;-71
2023/07/27 10:54:38;;;;;;;3.75;1.73;;;16.70;99.90;;;;;;5086774;28;20443;-71
2023/07/27 10:57:06;;;;;;;3.03;1.55;;;16.80;99.90;;;;;;5085242;28;20094;-72
2023/07/27 10:59:38;;;;;;;3.05;1.80;;;16.80;99.90;;;;;;5068640;28;20050;-71
2023/07/27 11:02:25;;;;;;;4.40;2.40;;;16.80;99.90;;;;;;5073555;28;20394;-71
2023/07/27 11:04:53;;;;;;;4.18;2.40;;;16.80;99.90;;;;;;5079914;28;20111;-71
2023/07/27 11:07:33;;;;;;;4.97;2.95;;;16.80;99.90;;;;;;5080090;28;20054;-71
2023/07/27 11:10:09;;;;;;;5.13;2.75;;;16.80;99.90;;;;;;5083422;28;20119;-74
2023/07/27 11:12:49;;;;;;;5.10;3.08;;;16.80;99.90;;;;;;5074683;28;20048;-72
2023/07/27 11:15:15;;;;;;;4.85;3.10;;;16.80;99.90;;;;;;5088243;28;20133;-72
2023/07/27 11:17:41;;;;;;;6.25;3.47;;;16.80;99.90;;;;;;5083704;28;20104;-73
2023/07/27 11:20:09;;;;;;;5.63;3.40;;;16.80;99.90;;;;;;5076258;28;20036;-72
2023/07/27 11:22:35;;;;;;;5.90;3.80;;;16.80;99.90;;;;;;5084707;28;20200;-72
2023/07/27 11:25:04;;;;;;;6.03;3.97;;;16.80;99.90;;;;;;5078915;28;20047;-72
2023/07/27 11:27:30;;;;;;;5.70;3.70;;;16.90;99.90;;;;;;5081258;28;20055;-73
2023/07/27 11:29:59;;;;;;;5.68;3.55;;;16.90;99.90;;;;;;5076947;28;20818;-72
2023/07/27 11:32:26;;;;;;;6.75;3.50;;;16.90;99.90;;;;;;5078075;28;20047;-72
2023/07/27 11:34:56;;;;;;;5.63;3.90;;;16.90;99.90;;;;;;5071408;28;20500;-72
2023/07/27 11:37:26;;;;;;;5.30;3.80;;;17.00;99.90;;;;;;5069347;28;20048;-72
2023/07/27 11:39:52;;;;;;;5.38;3.70;;;17.00;99.90;;;;;;5081637;28;20116;-73
2023/07/27 11:42:35;;;;;;;6.35;3.50;;;17.10;99.90;;;;;;5087754;28;20130;-73
2023/07/27 11:45:03;;;;;;;5.60;3.67;;;17.10;99.90;;;;;;5079551;28;20094;-72
2023/07/27 11:47:38;;;;;;;5.57;4.03;;;17.10;99.90;;;;;;5074519;28;20064;-73
2023/07/27 11:50:08;;;;;;;5.65;3.35;;;17.20;99.90;;;;;;5081559;28;20119;-73
2023/07/27 11:52:38;;;;;;;5.43;3.58;;;17.20;99.90;;;;;;5085451;28;20514;-73
2023/07/27 11:55:05;;;;;;;5.07;3.15;;;17.20;99.90;;;;;;5074616;28;20066;-73
2023/07/27 11:57:30;;;;;;;5.25;3.55;;;17.30;99.90;;;;;;5085746;28;20048;-73
2023/07/27 12:00:13;;;;;;;4.53;3.00;;;17.30;99.90;;;;;;5084301;28;20459;-73
2023/07/27 12:02:40;;;;;;;5.60;3.47;;;17.30;99.90;;;;;;5086867;28;20040;-73
2023/07/27 12:05:06;;;;;;;6.22;3.20;;;17.40;99.90;;;;;;5077327;28;20032;-72
2023/07/27 12:07:34;;;;;;;5.10;3.30;;;17.40;99.90;;;;;;5081202;28;20082;-73
2023/07/27 12:10:00;;;;;;;4.75;3.05;;;17.40;99.90;;;;;;5081115;28;20048;-73
2023/07/27 12:12:26;;;;;;;5.10;3.05;;;17.50;99.90;;;;;;5074579;28;20058;-73
2023/07/27 12:14:54;;;;;;;5.25;2.97;;;17.50;99.90;;;;;;5072388;28;20045;-72
2023/07/27 12:17:24;;;;;;;4.80;2.90;;;17.60;99.90;;;;;;5082331;28;20083;-72
2023/07/27 12:19:49;;;;;;;4.38;2.72;;;17.60;99.90;;;;;;5081875;28;20040;-73
2023/07/27 12:22:15;;;;;;;4.50;2.70;;;17.60;99.90;;;;;;5091252;28;20081;-73
2023/07/27 12:24:47;;;;;;;5.05;2.92;;;17.70;99.90;;;;;;5090817;28;20043;-73
2023/07/27 12:27:12;;;;;;;4.47;2.95;;;17.80;99.90;;;;;;5089833;28;20089;-72
2023/07/27 12:29:38;;;;;;;4.07;2.50;;;17.80;99.90;;;;;;5081955;28;20048;-72
2023/07/27 12:32:05;;;;;;;4.30;2.65;;;17.80;99.90;;;;;;5089508;28;20653;-72
2023/07/27 12:34:32;;;;;;;4.43;2.50;;;17.90;99.90;;;;;;5090805;28;20052;-73
2023/07/27 12:36:57;;;;;;;4.30;3.00;;;17.90;99.90;;;;;;5085936;28;20140;-73
2023/07/27 12:39:23;;;;;;;3.85;2.20;;;18.00;99.90;;;;;;5083649;28;20040;-73
2023/07/27 12:41:49;;;;;;;3.83;2.50;;;18.00;99.90;;;;;;5076237;28;20048;-72
2023/07/27 12:44:15;;;;;;;3.63;2.35;;;18.00;99.90;;;;;;5085141;28;20181;-72